LTCN

Kahramanmaraş Airport

Kahramanmaraş, Turkey
TAF LTCN 171040Z 1712/1721 VRB02KT 9999 SCT030 BKN080 TEMPO 1712/1715 12013KT -SHRA
Issued Valid From Valid To
Dec-17 @ 10:40 UTC
(3 hours ago)
Dec-17 @ 12:00 UTC
(an hour ago)
Dec-17 @ 21:00 UTC
(in 8 hours)
Dec-17 @ 12:00 to Dec-17 @ 21:00
TAF LTCN 171040Z 1712/1721 VRB02KT 9999 SCT030 BKN080
Wind Visibility Clouds
Variable at 2 knots 10,000+ meters
  • Scattered at 3,000' AGL
  • Broken at 8,000' AGL
Temporary Dec-17 @ 12:00 to Dec-17 @ 15:00
TEMPO 1712/1715 12013KT -SHRA
Wind Conditions
120° at 13 knots
  • Light Rain
TAF LTCN 171040Z 1712/1721 VRB02KT 9999 SCT030 BKN080 TEMPO 1712/1715 12013KT -SHRA
Issued Dec-17 @ 10:40 UTC
(3 hours ago)
Valid From Dec-17 @ 12:00 UTC
(an hour ago)
Valid To Dec-17 @ 21:00 UTC
(in 8 hours)
Dec-17 @ 12:00 - Dec-17 @ 21:00
Wind Visibility
Variable at 2 knots 10,000+ meters
Clouds
  • Scattered at 3,000' AGL
  • Broken at 8,000' AGL
Temporary Dec-17 @ 12:00 - Dec-17 @ 15:00
Wind
120° at 13 knots
Conditions
  • Light Rain